Time;durP1;ratioP1;P1;durP2;ratioP2;P2;SDS_P1;SDS_P2;PMS_P1;PMS_P2;Temp;Humidity;BMP_temperature;BMP_pressure;BME280_temperature;BME280_humidity;BME280_pressure;Samples;Min_cycle;Max_cycle;Signal;HPM_P1;HPM_P2
2023/06/10 00:00:44;;;;;;;12.05;5.32;;;;;;;17.82;100.00;64844.34;5091447;28;20200;-57
2023/06/10 00:03:10;;;;;;;8.07;5.70;;;;;;;17.85;100.00;64845.09;5091437;28;20216;-57
2023/06/10 00:05:38;;;;;;;9.73;6.57;;;;;;;17.87;100.00;64852.97;5091285;28;20207;-57
2023/06/10 00:08:07;;;;;;;6.75;5.90;;;;;;;17.87;100.00;64850.41;5089779;28;20278;-57
2023/06/10 00:10:38;;;;;;;10.25;7.00;;;;;;;17.84;100.00;64849.66;5090794;28;20204;-56
2023/06/10 00:13:07;;;;;;;10.20;6.25;;;;;;;17.85;100.00;64845.66;5089826;28;20196;-56
2023/06/10 00:15:33;;;;;;;11.70;6.35;;;;;;;17.79;100.00;64841.59;5091014;28;20173;-59
2023/06/10 00:17:58;;;;;;;6.90;6.05;;;;;;;17.75;100.00;64834.66;5091115;28;20207;-58
2023/06/10 00:20:25;;;;;;;10.27;6.55;;;;;;;17.65;100.00;64826.16;5091133;28;20205;-59
2023/06/10 00:22:51;;;;;;;11.35;6.72;;;;;;;17.65;100.00;64825.63;5091011;28;20211;-59
2023/06/10 00:25:17;;;;;;;8.90;6.68;;;;;;;17.56;100.00;64816.25;5089993;28;20270;-60
2023/06/10 00:27:42;;;;;;;8.23;6.07;;;;;;;17.63;100.00;64821.41;5090856;28;20590;-59
2023/06/10 00:30:08;;;;;;;9.70;6.70;;;;;;;17.67;100.00;64827.81;5090972;28;20211;-58
2023/06/10 00:32:35;;;;;;;8.75;6.40;;;;;;;17.78;100.00;64840.50;5090968;28;20227;-60
2023/06/10 00:35:01;;;;;;;9.13;6.68;;;;;;;17.77;100.00;64841.38;5090905;28;20200;-59
2023/06/10 00:37:28;;;;;;;10.43;6.88;;;;;;;17.67;100.00;64828.38;5090888;28;20580;-59
2023/06/10 00:39:54;;;;;;;7.97;6.38;;;;;;;17.60;100.00;64820.66;5090673;28;20200;-59
2023/06/10 00:42:19;;;;;;;8.20;6.25;;;;;;;17.67;100.00;64827.81;5091203;28;20281;-58
2023/06/10 00:44:45;;;;;;;7.95;6.30;;;;;;;17.76;100.00;64840.84;5090569;28;20200;-59
2023/06/10 00:47:10;;;;;;;6.97;6.22;;;;;;;17.73;100.00;64836.97;5091076;28;20210;-59
2023/06/10 00:49:36;;;;;;;9.23;6.65;;;;;;;17.89;100.00;64852.63;5090852;28;20701;-59
2023/06/10 00:52:04;;;;;;;9.02;7.05;;;;;;;17.93;100.00;64857.03;5090659;28;20603;-59
2023/06/10 00:54:30;;;;;;;8.23;6.47;;;;;;;17.70;100.00;64834.22;5090468;28;20204;-57
2023/06/10 00:56:56;;;;;;;12.05;7.85;;;;;;;17.60;100.00;64820.66;5090784;28;20200;-58
2023/06/10 00:59:22;;;;;;;10.45;7.32;;;;;;;17.62;100.00;64822.84;5090739;28;20545;-56
2023/06/10 01:01:47;;;;;;;12.70;7.57;;;;;;;17.75;100.00;64839.75;5090954;28;20222;-60
2023/06/10 01:04:13;;;;;;;10.88;8.75;;;;;;;17.74;100.00;64838.63;5090493;28;20576;-56
2023/06/10 01:06:51;;;;;;;13.68;9.18;;;;;;;17.72;100.00;64833.88;5090503;28;20215;-57
2023/06/10 01:09:38;;;;;;;11.60;9.15;;;;;;;17.74;100.00;64838.06;5090757;28;20260;-58
2023/06/10 01:12:24;;;;;;;11.73;8.05;;;;;;;17.68;100.00;64826.38;5090323;28;20249;-56
2023/06/10 01:14:50;;;;;;;10.60;9.13;;;;;;;17.51;100.00;64811.28;5090689;28;20231;-57
2023/06/10 01:17:17;;;;;;;13.18;9.63;;;;;;;17.49;100.00;64811.09;5090596;28;20320;-56
2023/06/10 01:19:44;;;;;;;11.65;10.20;;;;;;;17.43;100.00;64799.34;5090208;28;20231;-57
2023/06/10 01:22:10;;;;;;;16.30;10.40;;;;;;;17.34;100.00;64791.97;5088510;28;20216;-56
2023/06/10 01:24:36;;;;;;;11.82;9.52;;;;;;;17.45;100.00;64804.66;5089960;28;20211;-55
2023/06/10 01:27:10;;;;;;;13.30;10.30;;;;;;;17.35;100.00;64795.63;5090686;28;20638;-58
2023/06/10 01:29:46;;;;;;;12.63;10.63;;;;;;;17.37;100.00;64792.75;5090208;28;20199;-57
2023/06/10 01:32:28;;;;;;;11.30;10.10;;;;;;;17.46;100.00;64807.75;5090472;28;20249;-55
2023/06/10 01:34:56;;;;;;;11.52;9.85;;;;;;;17.48;100.00;64807.41;5090135;28;20206;-57
2023/06/10 01:37:26;;;;;;;14.00;10.32;;;;;;;17.51;100.00;64815.84;5093356;28;20200;-56
2023/06/10 01:39:54;;;;;;;15.35;10.23;;;;;;;17.38;100.00;64793.84;5093768;28;20212;-59
2023/06/10 01:42:21;;;;;;;12.15;10.05;;;;;;;17.36;100.00;64794.19;5093459;28;20254;-59
2023/06/10 01:44:46;;;;;;;14.32;10.75;;;;;;;17.41;100.00;64799.69;5093561;28;20212;-59
2023/06/10 01:47:12;;;;;;;14.07;10.18;;;;;;;17.55;100.00;64817.69;5093951;28;20783;-60
2023/06/10 01:49:37;;;;;;;13.02;10.65;;;;;;;17.60;100.00;64820.66;5093553;28;20622;-59
2023/06/10 01:52:03;;;;;;;12.23;9.75;;;;;;;17.57;100.00;64817.34;5093747;28;20235;-59
2023/06/10 01:54:28;;;;;;;14.82;11.00;;;;;;;17.61;100.00;64821.75;5093188;28;20212;-60
2023/06/10 01:56:54;;;;;;;11.65;9.55;;;;;;;17.58;100.00;64818.44;5093711;28;20335;-60
2023/06/10 01:59:19;;;;;;;12.50;10.20;;;;;;;17.66;100.00;64829.81;5093554;28;20261;-59
2023/06/10 02:01:45;;;;;;;10.98;9.88;;;;;;;17.84;100.00;64847.09;5093615;28;20573;-59
2023/06/10 02:04:10;;;;;;;12.10;9.18;;;;;;;17.82;100.00;64846.88;5093167;28;20716;-60
2023/06/10 02:06:37;;;;;;;11.32;8.93;;;;;;;17.88;100.00;64848.97;5093345;28;20204;-59
2023/06/10 02:09:03;;;;;;;10.63;8.32;;;;;;;17.91;100.00;64857.38;5093096;28;20239;-57
2023/06/10 02:11:29;;;;;;;10.43;8.88;;;;;;;17.87;100.00;64852.97;5093269;28;20252;-58
2023/06/10 02:13:54;;;;;;;10.70;8.73;;;;;;;17.76;100.00;64840.84;5093030;28;20208;-56
2023/06/10 02:16:21;;;;;;;12.05;9.20;;;;;;;17.73;100.00;64834.44;5093012;28;20230;-56
2023/06/10 02:18:46;;;;;;;13.68;8.73;;;;;;;17.60;100.00;64823.75;5093002;28;20268;-56
2023/06/10 02:21:12;;;;;;;13.32;9.73;;;;;;;17.61;100.00;64824.31;5093239;28;20571;-58
2023/06/10 02:23:38;;;;;;;8.65;7.72;;;;;;;17.65;100.00;64826.16;5092815;28;20586;-56
2023/06/10 02:26:03;;;;;;;12.15;8.60;;;;;;;17.62;100.00;64825.41;5093142;28;20733;-56
2023/06/10 02:28:28;;;;;;;9.40;8.15;;;;;;;17.71;100.00;64832.78;5093061;28;20204;-57
2023/06/10 02:30:54;;;;;;;8.90;8.00;;;;;;;17.77;100.00;64838.84;5092835;28;20200;-61
2023/06/10 02:33:19;;;;;;;11.88;8.50;;;;;;;17.72;100.00;64836.41;5094785;22;21794;-56
2023/06/10 02:35:45;;;;;;;9.07;8.15;;;;;;;17.74;100.00;64835.53;5052534;28;20210;-55
2023/06/10 02:38:11;;;;;;;9.25;8.35;;;;;;;17.77;100.00;64839.41;5052728;28;20210;-59
2023/06/10 02:40:36;;;;;;;9.57;8.57;;;;;;;17.76;100.00;64838.28;5052696;28;20289;-59
2023/06/10 02:43:01;;;;;;;10.48;7.50;;;;;;;17.85;100.00;64845.09;5052420;28;20682;-60
2023/06/10 02:45:27;;;;;;;11.35;8.43;;;;;;;17.81;100.00;64845.81;5052505;28;20690;-59
2023/06/10 02:47:52;;;;;;;11.80;7.72;;;;;;;17.76;100.00;64838.28;5051749;28;20201;-59
2023/06/10 02:50:18;;;;;;;13.27;7.75;;;;;;;17.85;100.00;64852.75;5052350;28;20580;-59
2023/06/10 02:52:43;;;;;;;11.82;8.57;;;;;;;17.87;100.00;64852.41;5052412;28;20221;-62
2023/06/10 02:55:09;;;;;;;10.55;8.25;;;;;;;18.03;100.00;64867.50;5052294;28;20771;-59
2023/06/10 02:57:35;;;;;;;9.88;7.45;;;;;;;18.17;100.00;64883.50;5052316;28;20583;-59
2023/06/10 03:00:02;;;;;;;10.98;8.00;;;;;;;18.11;100.00;64876.31;5052185;28;20648;-59
2023/06/10 03:02:28;;;;;;;17.13;8.98;;;;;;;18.10;100.00;64875.22;5052141;28;20197;-59
2023/06/10 03:04:55;;;;;;;13.32;7.97;;;;;;;18.09;100.00;64877.22;5034304;28;20221;-59
2023/06/10 03:07:21;;;;;;;9.43;7.72;;;;;;;17.90;100.00;64853.16;5051951;28;20779;-57
2023/06/10 03:09:46;;;;;;;11.80;8.43;;;;;;;17.86;100.00;64849.31;5052109;28;20213;-57
2023/06/10 03:12:12;;;;;;;9.80;8.68;;;;;;;17.83;100.00;64846.00;5052025;28;20202;-57
2023/06/10 03:14:38;;;;;;;12.95;8.00;;;;;;;17.76;100.00;64840.84;5052398;28;20205;-58
2023/06/10 03:17:04;;;;;;;9.45;7.68;;;;;;;17.77;100.00;64836.28;5052115;28;20193;-56
2023/06/10 03:19:30;;;;;;;11.55;8.68;;;;;;;17.76;100.00;64835.72;5052017;28;20237;-57
2023/06/10 03:22:10;;;;;;;10.13;8.60;;;;;;;17.84;100.00;64849.66;5051904;28;20229;-56
2023/06/10 03:24:35;;;;;;;12.65;8.07;;;;;;;17.66;100.00;64827.25;5051699;28;20213;-56
2023/06/10 03:27:04;;;;;;;12.50;8.60;;;;;;;17.55;100.00;64812.59;5052018;28;20647;-56
2023/06/10 03:29:30;;;;;;;10.20;8.32;;;;;;;17.58;100.00;64818.44;5051500;28;20217;-57
2023/06/10 03:31:56;;;;;;;14.10;8.23;;;;;;;17.63;100.00;64825.97;5051459;28;20217;-56
2023/06/10 03:34:23;;;;;;;12.20;8.20;;;;;;;17.35;100.00;64793.63;5051970;28;20241;-56
2023/06/10 03:36:49;;;;;;;9.38;8.35;;;;;;;17.43;100.00;64801.91;5033685;28;20212;-56
2023/06/10 03:39:15;;;;;;;12.35;9.13;;;;;;;17.47;100.00;64804.28;5051450;28;20211;-57
2023/06/10 03:41:41;;;;;;;12.23;9.25;;;;;;;17.43;100.00;64804.44;5050944;28;20252;-58
2023/06/10 03:44:06;;;;;;;13.05;9.23;;;;;;;17.46;100.00;64805.75;5051656;28;20209;-56
2023/06/10 03:46:32;;;;;;;11.13;8.98;;;;;;;17.56;100.00;64814.25;5051208;28;20205;-57
2023/06/10 03:49:00;;;;;;;10.45;8.75;;;;;;;17.67;100.00;64828.38;5051246;28;20288;-58
2023/06/10 03:51:26;;;;;;;12.52;9.43;;;;;;;17.65;100.00;64826.16;5050009;28;20217;-58
2023/06/10 03:53:51;;;;;;;12.05;9.43;;;;;;;17.51;100.00;64813.28;5051611;28;20691;-57
2023/06/10 03:56:17;;;;;;;11.02;8.52;;;;;;;17.54;100.00;64811.50;5051242;28;20193;-56
2023/06/10 03:58:42;;;;;;;10.05;8.98;;;;;;;17.67;100.00;64825.28;5051138;28;20743;-57
2023/06/10 04:01:07;;;;;;;11.52;8.65;;;;;;;17.92;100.00;64855.38;5050774;28;20683;-58
2023/06/10 04:03:33;;;;;;;9.95;7.93;;;;;;;17.94;100.00;64855.56;5050663;28;20209;-57
2023/06/10 04:05:58;;;;;;;15.13;8.68;;;;;;;17.92;100.00;64853.38;5050866;28;20292;-58
2023/06/10 04:08:24;;;;;;;13.25;8.73;;;;;;;18.05;100.00;64867.72;5050151;28;20706;-57
2023/06/10 04:10:49;;;;;;;10.18;9.10;;;;;;;18.09;100.00;64874.13;5051020;28;20224;-57
2023/06/10 04:13:15;;;;;;;10.55;8.25;;;;;;;18.08;100.00;64870.47;5050828;28;20640;-57
2023/06/10 04:15:40;;;;;;;9.70;8.25;;;;;;;18.14;100.00;64879.66;5050839;28;20651;-58
2023/06/10 04:18:06;;;;;;;10.90;8.48;;;;;;;18.06;100.00;64868.81;5050885;28;20678;-61
2023/06/10 04:20:32;;;;;;;10.63;8.93;;;;;;;17.81;100.00;64843.81;5050558;28;20564;-60
2023/06/10 04:22:57;;;;;;;9.93;8.20;;;;;;;17.89;100.00;64850.06;5050358;28;20190;-59
2023/06/10 04:25:24;;;;;;;11.82;8.68;;;;;;;17.97;100.00;64861.44;5049986;28;20647;-59
2023/06/10 04:27:50;;;;;;;12.07;8.55;;;;;;;18.11;100.00;64876.31;5049633;28;20309;-61
2023/06/10 04:30:16;;;;;;;10.52;9.05;;;;;;;18.06;100.00;64873.38;5049131;28;20286;-60
2023/06/10 04:32:42;;;;;;;10.82;8.50;;;;;;;17.92;100.00;64855.91;5050497;28;20220;-60
2023/06/10 04:35:11;;;;;;;12.07;9.30;;;;;;;17.91;100.00;64856.81;5050491;28;20213;-60
2023/06/10 04:37:36;;;;;;;12.70;8.88;;;;;;;18.08;100.00;64870.47;5050763;28;20208;-57
2023/06/10 04:40:02;;;;;;;10.50;8.82;;;;;;;17.86;100.00;64851.84;5050803;28;20591;-58
2023/06/10 04:42:27;;;;;;;16.05;10.88;;;;;;;17.80;100.00;64844.69;5049665;28;20193;-60
2023/06/10 04:44:53;;;;;;;13.05;10.38;;;;;;;17.77;100.00;64838.84;5050522;28;20202;-61
2023/06/10 04:47:18;;;;;;;12.15;9.57;;;;;;;18.17;100.00;64883.50;5049406;28;20651;-62
2023/06/10 04:49:44;;;;;;;10.15;9.10;;;;;;;18.01;100.00;64865.84;5050536;28;20239;-59
2023/06/10 04:52:09;;;;;;;12.15;9.18;;;;;;;17.81;100.00;64846.34;5050346;28;20219;-56
2023/06/10 04:54:35;;;;;;;11.90;8.43;;;;;;;17.61;100.00;64822.28;5050462;28;20216;-56
2023/06/10 04:57:00;;;;;;;15.90;9.40;;;;;;;17.56;100.00;64816.25;5050443;28;20738;-56
2023/06/10 04:59:26;;;;;;;15.05;9.60;;;;;;;17.28;100.00;64787.91;5050825;28;20223;-59
2023/06/10 05:01:51;;;;;;;14.48;9.20;;;;;;;17.07;100.00;64759.69;5049880;28;20201;-60
2023/06/10 05:04:17;;;;;;;12.98;8.77;;;;;;;17.21;100.00;64777.66;5050688;28;20205;-56
2023/06/10 05:06:43;;;;;;;11.20;9.40;;;;;;;17.24;100.00;64780.97;5049645;28;21073;-57
2023/06/10 05:09:09;;;;;;;14.63;10.43;;;;;;;17.10;100.00;64765.53;5050426;28;20625;-56
2023/06/10 05:11:34;;;;;;;14.32;9.77;;;;;;;17.08;100.00;64765.88;5052128;28;20221;-58
2023/06/10 05:14:00;;;;;;;12.82;9.50;;;;;;;17.20;100.00;64777.09;5053301;28;20202;-59
2023/06/10 05:16:25;;;;;;;10.50;9.40;;;;;;;17.40;100.00;64798.59;5053810;28;20684;-55
2023/06/10 05:18:51;;;;;;;13.98;9.55;;;;;;;17.33;100.00;64791.41;5053030;28;20201;-57
2023/06/10 05:21:17;;;;;;;12.35;9.50;;;;;;;17.45;100.00;64804.09;5053657;28;20205;-55
2023/06/10 05:23:42;;;;;;;16.48;9.45;;;;;;;17.43;100.00;64802.44;5053813;28;20715;-57
2023/06/10 05:26:08;;;;;;;13.15;9.77;;;;;;;17.44;100.00;64803.56;5053484;28;20236;-57
2023/06/10 05:28:33;;;;;;;13.23;8.95;;;;;;;17.52;100.00;64811.84;5053491;28;20263;-56
2023/06/10 05:30:58;;;;;;;11.40;9.73;;;;;;;17.56;100.00;64816.78;5051567;28;20197;-56
2023/06/10 05:33:24;;;;;;;10.48;8.85;;;;;;;17.79;100.00;64841.03;5053283;28;20664;-57
2023/06/10 05:35:49;;;;;;;11.05;9.80;;;;;;;17.88;100.00;64850.94;5053454;28;20181;-57
2023/06/10 05:38:15;;;;;;;12.75;8.85;;;;;;;17.87;100.00;64850.41;5053549;28;20606;-56
2023/06/10 05:40:40;;;;;;;12.70;8.52;;;;;;;18.05;100.00;64870.25;5053155;28;20227;-60
2023/06/10 05:43:06;;;;;;;12.15;9.70;;;;;;;18.12;100.00;64877.44;5053228;28;20200;-59
2023/06/10 05:45:31;;;;;;;11.65;9.82;;;;;;;18.03;100.00;64868.06;5053232;28;20294;-59
2023/06/10 05:47:56;;;;;;;10.63;9.43;;;;;;;17.94;100.00;64858.13;5053270;28;20647;-62
2023/06/10 05:50:24;;;;;;;11.88;9.95;;;;;;;17.85;100.00;64850.22;5051298;28;20194;-59
2023/06/10 05:52:50;;;;;;;14.25;9.55;;;;;;;18.07;100.00;64872.47;5052891;28;20217;-59
2023/06/10 05:55:15;;;;;;;11.15;9.88;;;;;;;18.26;100.00;64890.84;5052572;28;20679;-60
2023/06/10 05:57:41;;;;;;;15.10;11.57;;;;;;;17.96;100.00;64860.34;5053164;28;20266;-60
2023/06/10 06:00:07;;;;;;;16.70;12.77;;;;;;;18.24;100.00;64888.66;5051745;28;20213;-58
2023/06/10 06:02:33;;;;;;;15.10;12.70;;;;;;;18.56;100.00;64925.44;5052589;28;20664;-58
2023/06/10 06:04:58;;;;;;;17.20;12.00;;;;;;;18.81;100.00;64950.44;5051518;28;20252;-58
2023/06/10 06:07:24;;;;;;;15.15;12.48;;;;;;;18.65;100.00;64933.34;5052853;28;20196;-56
2023/06/10 06:09:49;;;;;;;17.25;13.95;;;;;;;18.43;100.00;64912.19;5051923;28;20206;-57
2023/06/10 06:12:15;;;;;;;17.40;12.93;;;;;;;18.44;100.00;64910.19;5052958;28;20580;-58
2023/06/10 06:14:40;;;;;;;18.80;12.88;;;;;;;18.34;100.00;64902.22;5053086;28;20270;-57
2023/06/10 06:17:06;;;;;;;16.75;13.88;;;;;;;18.38;100.00;64906.66;5053066;28;20635;-57
2023/06/10 06:19:32;;;;;;;18.30;13.98;;;;;;;18.14;100.00;64880.19;5052976;28;20212;-56
2023/06/10 06:21:57;;;;;;;14.18;12.68;;;;;;;18.28;100.00;64895.09;5052812;28;20202;-58
2023/06/10 06:24:23;;;;;;;18.83;12.95;;;;;;;18.40;100.00;64906.28;5053230;28;20205;-57
2023/06/10 06:26:49;;;;;;;16.40;12.48;;;;;;;18.76;100.00;64947.50;5052714;28;20208;-57
2023/06/10 06:29:14;;;;;;;14.02;12.38;;;;;;;18.91;100.00;64964.03;5052683;28;20206;-56
2023/06/10 06:31:40;;;;;;;14.07;12.13;;;;;;;19.06;100.00;64983.16;5052309;28;20221;-57
2023/06/10 06:34:05;;;;;;;16.42;13.02;;;;;;;19.15;100.00;64988.53;5052698;28;20212;-61
2023/06/10 06:36:31;;;;;;;16.63;12.98;;;;;;;18.95;100.00;64966.44;5033533;28;20216;-58
2023/06/10 06:38:58;;;;;;;19.58;13.27;;;;;;;18.72;100.00;64943.63;5052524;28;20232;-60
2023/06/10 06:41:26;;;;;;;18.42;13.77;;;;;;;18.86;100.00;64961.06;5052606;28;20201;-59
2023/06/10 06:43:51;;;;;;;15.98;11.68;;;;;;;19.06;100.00;64981.16;5052351;28;20685;-60
2023/06/10 06:46:16;;;;;;;27.08;22.15;;;;;;;19.23;100.00;64999.34;5052494;28;20671;-59
2023/06/10 06:48:42;;;;;;;17.00;12.48;;;;;;;19.35;100.00;65012.63;5051198;28;20212;-60
2023/06/10 06:51:07;;;;;;;18.17;13.35;;;;;;;19.12;100.00;64987.22;5052229;28;20706;-62
2023/06/10 06:53:33;;;;;;;16.63;13.05;;;;;;;19.72;100.00;65053.47;5051071;28;20236;-61
2023/06/10 06:55:58;;;;;;;10.38;8.95;;;;;;;20.17;100.00;65102.06;5052100;28;20640;-60
2023/06/10 06:58:24;;;;;;;9.65;7.25;;;;;;;20.51;100.00;65137.66;5050392;28;20275;-61
2023/06/10 07:00:50;;;;;;;15.55;9.40;;;;;;;20.46;100.00;65131.59;5051822;28;20216;-60
2023/06/10 07:03:15;;;;;;;11.85;8.80;;;;;;;19.83;100.00;65065.63;5051661;28;20209;-57
2023/06/10 07:05:41;;;;;;;10.18;8.20;;;;;;;19.67;100.00;65047.97;5051876;28;20288;-58
2023/06/10 07:08:06;;;;;;;11.00;7.13;;;;;;;19.63;100.00;65043.56;5051346;28;20185;-57
2023/06/10 07:10:32;;;;;;;13.15;8.38;;;;;;;19.56;100.00;65033.25;5051977;28;20279;-57
2023/06/10 07:12:58;;;;;;;12.30;8.32;;;;;;;19.61;100.00;65041.34;5051349;28;20205;-57
2023/06/10 07:15:23;;;;;;;15.40;8.93;;;;;;;19.86;100.00;65068.38;5052009;28;20209;-55
2023/06/10 07:17:49;;;;;;;12.80;9.13;;;;;;;19.80;100.00;65061.75;5051237;28;20278;-59
2023/06/10 07:20:14;;;;;;;12.73;9.73;;;;;;;19.67;100.00;65050.53;5052124;28;20212;-56
2023/06/10 07:22:41;;;;;;;14.27;8.52;;;;;;;19.94;100.00;65074.66;5050949;28;20645;-57
2023/06/10 07:25:07;;;;;;;13.32;8.23;;;;;;;20.38;100.00;65127.88;5051159;28;20760;-56
2023/06/10 07:27:32;;;;;;;13.20;8.00;;;;;;;20.26;100.00;65109.50;5049559;28;20240;-57
2023/06/10 07:29:58;;;;;;;14.23;7.50;;;;;;;20.38;100.00;65125.31;5051236;28;20236;-57
2023/06/10 07:32:24;;;;;;;12.18;8.40;;;;;;;20.82;100.00;65173.94;5049996;28;20209;-60
2023/06/10 07:34:50;;;;;;;9.65;6.30;;;;;;;20.66;100.00;65156.25;5051057;28;20237;-60
2023/06/10 07:37:16;;;;;;;9.02;6.50;;;;;;;20.65;100.00;65153.13;5051467;28;20205;-60
2023/06/10 07:39:43;;;;;;;7.80;6.28;;;;;;;20.84;100.00;65173.59;5051872;28;20217;-59
2023/06/10 07:42:08;;;;;;;10.07;6.43;;;;;;;21.12;100.00;65204.00;5051340;28;20220;-60
2023/06/10 07:44:34;;;;;;;9.48;6.90;;;;;;;20.37;100.00;65124.75;5051898;28;20683;-61
2023/06/10 07:46:59;;;;;;;12.73;6.80;;;;;;;20.80;100.00;65169.16;5051153;28;20194;-59
2023/06/10 07:49:25;;;;;;;9.43;6.18;;;;;;;20.99;100.00;65192.19;5051273;28;20244;-59
2023/06/10 07:51:50;;;;;;;13.50;7.40;;;;;;;21.17;100.00;65210.06;5051222;28;20217;-60
2023/06/10 07:54:16;;;;;;;9.18;6.28;;;;;;;21.33;100.00;65230.34;5051150;28;20570;-60
2023/06/10 07:56:41;;;;;;;7.57;5.85;;;;;;;21.57;100.00;65256.34;5051082;28;20197;-60
2023/06/10 07:59:07;;;;;;;11.32;7.00;;;;;;;21.36;98.03;65233.66;5051151;28;20616;-60
2023/06/10 08:01:33;;;;;;;9.32;6.50;;;;;;;21.23;100.00;65219.28;5050674;28;20274;-59
2023/06/10 08:03:58;;;;;;;9.52;6.38;;;;;;;21.69;95.59;65267.59;5051394;28;20265;-61
2023/06/10 08:06:24;;;;;;;12.20;6.53;;;;;;;21.51;95.04;65247.16;5050892;28;20193;-60
2023/06/10 08:08:49;;;;;;;7.78;5.45;;;;;;;21.40;89.86;65232.41;5051038;28;20208;-60
2023/06/10 08:11:15;;;;;;;6.38;4.90;;;;;;;21.75;90.27;65274.22;5033118;28;20247;-60
2023/06/10 08:13:41;;;;;;;5.50;4.47;;;;;;;22.18;90.38;65321.28;5051099;28;20668;-58
2023/06/10 08:16:12;;;;;;;4.30;3.88;;;;;;;22.11;82.82;65313.00;5051140;28;20305;-57
2023/06/10 08:18:37;;;;;;;6.35;4.40;;;;;;;22.54;84.04;65363.69;5050714;28;20205;-58
2023/06/10 08:21:03;;;;;;;7.70;4.75;;;;;;;22.25;85.70;65329.03;5050830;28;20193;-57
2023/06/10 08:23:29;;;;;;;8.52;4.25;;;;;;;22.19;82.00;65324.97;5051253;28;20336;-56
2023/06/10 08:25:54;;;;;;;6.63;3.47;;;;;;;21.83;80.56;65282.56;5050801;28;20593;-58
2023/06/10 08:28:19;;;;;;;6.28;4.43;;;;;;;22.31;78.99;65333.13;5050794;28;20307;-58
2023/06/10 08:30:45;;;;;;;6.25;4.03;;;;;;;22.48;79.55;65357.06;5050557;28;20204;-56
2023/06/10 08:33:10;;;;;;;7.90;4.22;;;;;;;22.32;74.90;65336.25;5050845;28;20221;-57
2023/06/10 08:35:36;;;;;;;7.53;4.30;;;;;;;22.01;75.26;65302.47;5050853;28;20202;-57
2023/06/10 08:38:01;;;;;;;7.50;4.25;;;;;;;22.15;77.69;65314.84;5050409;28;20276;-58
2023/06/10 08:40:26;;;;;;;5.95;4.45;;;;;;;22.16;75.21;65321.09;5050548;28;20847;-57
2023/06/10 08:43:01;;;;;;;4.85;4.35;;;;;;;22.62;74.89;65366.91;5050756;28;20194;-56
2023/06/10 08:45:31;;;;;;;5.78;4.30;;;;;;;23.13;78.92;65425.94;5049771;28;20209;-57
2023/06/10 08:47:57;;;;;;;5.15;3.50;;;;;;;22.95;73.89;65405.44;5050539;28;20619;-56
2023/06/10 08:50:24;;;;;;;4.68;3.72;;;;;;;23.41;68.50;65455.88;5050649;28;20206;-57
2023/06/10 08:52:53;;;;;;;4.80;3.45;;;;;;;23.16;67.05;65429.28;5032438;28;20216;-57
2023/06/10 08:55:31;;;;;;;3.83;3.28;;;;;;;23.27;67.79;65440.91;5050391;28;20220;-58
2023/06/10 08:57:59;;;;;;;3.80;3.15;;;;;;;22.81;71.03;65390.50;5050554;28;20259;-57
2023/06/10 09:00:26;;;;;;;5.40;3.50;;;;;;;22.77;67.76;65386.06;5050297;28;20213;-57
2023/06/10 09:02:51;;;;;;;3.95;3.30;;;;;;;22.76;66.50;65382.41;5050323;28;20185;-57
2023/06/10 09:05:17;;;;;;;8.57;3.72;;;;;;;23.26;65.87;65437.78;5050104;28;20245;-58
2023/06/10 09:07:43;;;;;;;3.97;3.58;;;;;;;23.92;70.32;65509.81;5050392;28;20201;-58
2023/06/10 09:10:09;;;;;;;4.68;3.20;;;;;;;24.21;67.83;65544.00;5049533;28;20205;-57
2023/06/10 09:12:35;;;;;;;3.60;3.30;;;;;;;24.65;62.56;65595.94;5050203;28;20214;-58
2023/06/10 09:15:02;;;;;;;3.33;2.75;;;;;;;23.76;59.48;65497.22;5050175;28;20695;-57
2023/06/10 09:17:28;;;;;;;3.08;2.65;;;;;;;24.03;60.11;65522.59;5050168;28;20201;-57
2023/06/10 09:19:55;;;;;;;3.33;3.03;;;;;;;24.48;63.46;65574.53;5049885;28;20214;-57
2023/06/10 09:22:23;;;;;;;4.78;3.17;;;;;;;24.73;65.01;65602.25;5050143;28;20233;-57
2023/06/10 09:24:49;;;;;;;6.75;3.40;;;;;;;24.61;65.49;65586.34;5049983;28;20300;-58
2023/06/10 09:27:15;;;;;;;5.55;3.53;;;;;;;25.03;62.39;65634.44;5049902;28;20232;-57
2023/06/10 09:29:47;;;;;;;3.95;2.50;;;;;;;25.15;55.03;65647.75;5049388;28;20680;-57
2023/06/10 09:32:13;;;;;;;2.63;2.03;;;;;;;25.07;53.11;65636.31;5048817;28;20206;-57
2023/06/10 09:34:40;;;;;;;6.07;2.30;;;;;;;25.27;53.77;65663.66;5050106;28;20233;-57
2023/06/10 09:37:06;;;;;;;3.65;2.70;;;;;;;25.39;57.64;65671.81;5050051;28;20206;-57
2023/06/10 09:39:31;;;;;;;5.07;2.60;;;;;;;25.41;55.89;65679.22;5031217;28;20567;-56
2023/06/10 09:41:57;;;;;;;2.88;2.22;;;;;;;25.97;54.52;65736.22;5049059;28;20206;-57
2023/06/10 09:44:25;;;;;;;2.60;2.33;;;;;;;26.03;55.94;65744.91;5049836;28;20351;-57
2023/06/10 09:46:50;;;;;;;3.00;2.13;;;;;;;26.35;53.83;65777.88;5049161;28;20939;-57
2023/06/10 09:49:19;;;;;;;4.05;3.13;;;;;;;26.12;53.86;65755.47;5049047;28;20237;-58
2023/06/10 09:51:51;;;;;;;5.30;2.88;;;;;;;25.94;55.30;65732.88;5049503;28;20214;-57
2023/06/10 09:54:18;;;;;;;3.67;3.17;;;;;;;26.64;58.21;65808.06;5050099;28;20222;-57
2023/06/10 09:56:47;;;;;;;7.35;4.10;;;;;;;27.03;57.47;65850.88;5048567;28;20202;-57
2023/06/10 09:59:12;;;;;;;6.55;3.35;;;;;;;27.38;56.62;65895.00;5052884;28;20209;-56
2023/06/10 10:01:37;;;;;;;4.95;2.67;;;;;;;27.53;57.94;65908.53;5052820;28;20216;-56
2023/06/10 10:04:10;;;;;;;4.22;3.30;;;;;;;28.00;57.68;65960.81;5053078;28;20205;-56
2023/06/10 10:06:37;;;;;;;4.25;3.13;;;;;;;27.95;52.94;65955.25;5052923;28;20271;-56
2023/06/10 10:09:03;;;;;;;4.78;2.70;;;;;;;27.33;47.88;65886.28;5034973;28;20236;-58
2023/06/10 10:11:32;;;;;;;5.05;2.97;;;;;;;26.97;49.39;65848.81;5052822;28;20276;-56
2023/06/10 10:13:57;;;;;;;8.10;3.17;;;;;;;26.97;49.91;65848.81;5034805;28;20241;-58
2023/06/10 10:16:35;;;;;;;4.95;2.75;;;;;;;26.63;52.79;65812.16;5052862;28;20233;-57
2023/06/10 10:19:15;;;;;;;3.40;3.10;;;;;;;26.95;56.66;65846.59;5035428;28;20205;-55
2023/06/10 10:21:49;;;;;;;3.45;2.90;;;;;;;27.45;52.24;65902.22;5052870;28;20235;-57
2023/06/10 10:24:18;;;;;;;4.68;3.00;;;;;;;27.82;49.80;65940.22;5052962;28;20254;-58
2023/06/10 10:26:46;;;;;;;6.13;3.45;;;;;;;28.07;48.31;65968.63;5052541;28;20202;-57
2023/06/10 10:29:28;;;;;;;5.25;3.00;;;;;;;27.86;44.88;65947.81;5052575;28;20257;-56
2023/06/10 10:31:56;;;;;;;3.75;3.00;;;;;;;27.12;48.49;65865.50;5052592;28;20722;-57
2023/06/10 10:34:35;;;;;;;4.60;3.00;;;;;;;27.11;50.08;65864.41;5052320;28;20247;-57
2023/06/10 10:37:01;;;;;;;4.03;2.80;;;;;;;28.26;48.31;65989.19;5052535;28;20296;-57
2023/06/10 10:39:28;;;;;;;4.93;3.30;;;;;;;27.57;49.04;65915.56;5052720;28;20344;-56
2023/06/10 10:41:54;;;;;;;4.53;2.97;;;;;;;27.99;45.67;65961.75;5052685;28;20221;-56
2023/06/10 10:44:21;;;;;;;4.20;3.00;;;;;;;28.71;43.35;66041.88;5034355;28;20216;-55
2023/06/10 10:46:50;;;;;;;3.33;3.00;;;;;;;27.48;46.92;65902.41;5052271;28;20217;-57
2023/06/10 10:49:17;;;;;;;3.13;2.83;;;;;;;27.30;45.31;65882.94;5052485;28;20217;-55
2023/06/10 10:52:11;;;;;;;3.28;2.97;;;;;;;26.91;50.31;65842.16;5052401;28;20227;-58
2023/06/10 10:54:40;;;;;;;3.05;2.75;;;;;;;26.39;55.17;65782.34;5050838;28;20264;-56
2023/06/10 10:57:21;;;;;;;4.65;2.90;;;;;;;26.47;52.35;65791.78;5052260;28;20307;-57
2023/06/10 10:59:55;;;;;;;4.10;3.00;;;;;;;26.39;52.79;65785.47;5052065;28;20706;-57
2023/06/10 11:02:39;;;;;;;4.72;3.67;;;;;;;25.66;57.56;65704.94;5052207;28;20288;-57
2023/06/10 11:05:06;;;;;;;4.50;3.28;;;;;;;25.86;55.23;65723.47;5051952;28;20217;-56
2023/06/10 11:07:33;;;;;;;4.72;3.70;;;;;;;26.46;55.64;65790.66;5051886;28;20193;-57
2023/06/10 11:10:01;;;;;;;4.82;3.45;;;;;;;26.88;56.49;65836.25;5051336;28;20225;-57
2023/06/10 11:12:45;;;;;;;4.95;3.58;;;;;;;26.90;51.83;65838.47;5051798;28;20224;-56
2023/06/10 11:15:19;;;;;;;5.53;3.40;;;;;;;26.57;52.24;65805.47;5051704;28;20217;-57
2023/06/10 11:18:10;;;;;;;5.15;3.50;;;;;;;26.91;51.61;65839.56;5051925;28;20334;-57
2023/06/10 11:20:48;;;;;;;5.30;3.42;;;;;;;27.20;49.12;65871.81;5051560;28;20213;-56